sensor_id;sensor_type;location;lat;lon;timestamp;P1;durP1;ratioP1;P2;durP2;ratioP2
65328;SDS011;51941;52.210;5.158;2023-08-12T00:00:41;6.65;;;2.60;;
65328;SDS011;51941;52.210;5.158;2023-08-12T00:03:08;4.18;;;2.67;;
65328;SDS011;51941;52.210;5.158;2023-08-12T00:05:35;6.00;;;2.70;;
65328;SDS011;51941;52.210;5.158;2023-08-12T00:08:02;6.03;;;2.72;;
65328;SDS011;51941;52.210;5.158;2023-08-12T00:10:29;7.18;;;2.63;;
65328;SDS011;51941;52.210;5.158;2023-08-12T00:12:56;4.28;;;2.50;;
65328;SDS011;51941;52.210;5.158;2023-08-12T00:15:22;8.00;;;2.85;;
65328;SDS011;51941;52.210;5.158;2023-08-12T00:17:52;3.63;;;2.50;;
65328;SDS011;51941;52.210;5.158;2023-08-12T00:20:19;5.43;;;2.75;;
65328;SDS011;51941;52.210;5.158;2023-08-12T00:22:45;6.25;;;3.17;;
65328;SDS011;51941;52.210;5.158;2023-08-12T00:25:12;4.38;;;2.75;;
65328;SDS011;51941;52.210;5.158;2023-08-12T00:27:39;4.80;;;2.78;;
65328;SDS011;51941;52.210;5.158;2023-08-12T00:30:07;6.72;;;3.13;;
65328;SDS011;51941;52.210;5.158;2023-08-12T00:32:35;10.95;;;3.50;;
65328;SDS011;51941;52.210;5.158;2023-08-12T00:35:03;5.45;;;3.20;;
65328;SDS011;51941;52.210;5.158;2023-08-12T00:37:30;6.45;;;3.53;;
65328;SDS011;51941;52.210;5.158;2023-08-12T00:39:57;4.70;;;3.50;;
65328;SDS011;51941;52.210;5.158;2023-08-12T00:42:24;7.00;;;3.63;;
65328;SDS011;51941;52.210;5.158;2023-08-12T00:44:51;6.65;;;3.58;;
65328;SDS011;51941;52.210;5.158;2023-08-12T00:47:17;5.88;;;3.92;;
65328;SDS011;51941;52.210;5.158;2023-08-12T00:49:45;8.18;;;4.20;;
65328;SDS011;51941;52.210;5.158;2023-08-12T00:52:13;5.35;;;3.38;;
65328;SDS011;51941;52.210;5.158;2023-08-12T00:54:41;5.97;;;4.15;;
65328;SDS011;51941;52.210;5.158;2023-08-12T00:57:08;9.15;;;4.50;;
65328;SDS011;51941;52.210;5.158;2023-08-12T00:59:35;7.45;;;4.30;;
65328;SDS011;51941;52.210;5.158;2023-08-12T01:02:03;8.52;;;4.22;;
65328;SDS011;51941;52.210;5.158;2023-08-12T01:04:31;7.20;;;4.53;;
65328;SDS011;51941;52.210;5.158;2023-08-12T01:06:58;6.65;;;4.63;;
65328;SDS011;51941;52.210;5.158;2023-08-12T01:09:26;9.77;;;5.00;;
65328;SDS011;51941;52.210;5.158;2023-08-12T01:11:55;8.27;;;4.72;;
65328;SDS011;51941;52.210;5.158;2023-08-12T01:14:28;8.90;;;4.78;;
65328;SDS011;51941;52.210;5.158;2023-08-12T01:17:02;5.63;;;4.18;;
65328;SDS011;51941;52.210;5.158;2023-08-12T01:19:34;8.88;;;4.90;;
65328;SDS011;51941;52.210;5.158;2023-08-12T01:24:35;6.90;;;4.43;;
65328;SDS011;51941;52.210;5.158;2023-08-12T01:27:03;7.30;;;4.65;;
65328;SDS011;51941;52.210;5.158;2023-08-12T01:29:30;7.03;;;4.60;;
65328;SDS011;51941;52.210;5.158;2023-08-12T01:31:58;8.32;;;4.70;;
65328;SDS011;51941;52.210;5.158;2023-08-12T01:34:36;12.05;;;5.47;;
65328;SDS011;51941;52.210;5.158;2023-08-12T01:37:10;8.18;;;5.65;;
65328;SDS011;51941;52.210;5.158;2023-08-12T01:39:41;6.53;;;5.45;;
65328;SDS011;51941;52.210;5.158;2023-08-12T01:42:12;7.15;;;5.18;;
65328;SDS011;51941;52.210;5.158;2023-08-12T01:44:43;9.73;;;5.13;;
65328;SDS011;51941;52.210;5.158;2023-08-12T01:47:10;10.20;;;5.43;;
65328;SDS011;51941;52.210;5.158;2023-08-12T01:49:36;9.95;;;5.43;;
65328;SDS011;51941;52.210;5.158;2023-08-12T01:52:03;7.75;;;4.80;;
65328;SDS011;51941;52.210;5.158;2023-08-12T01:54:30;10.63;;;4.90;;
65328;SDS011;51941;52.210;5.158;2023-08-12T01:57:01;10.93;;;5.28;;
65328;SDS011;51941;52.210;5.158;2023-08-12T01:59:30;8.40;;;5.53;;
65328;SDS011;51941;52.210;5.158;2023-08-12T02:01:57;8.65;;;5.15;;
65328;SDS011;51941;52.210;5.158;2023-08-12T02:04:24;14.85;;;5.80;;
65328;SDS011;51941;52.210;5.158;2023-08-12T02:06:52;10.50;;;6.25;;
65328;SDS011;51941;52.210;5.158;2023-08-12T02:09:19;9.07;;;5.50;;
65328;SDS011;51941;52.210;5.158;2023-08-12T02:11:46;8.00;;;5.72;;
65328;SDS011;51941;52.210;5.158;2023-08-12T02:14:14;11.05;;;5.93;;
65328;SDS011;51941;52.210;5.158;2023-08-12T02:16:41;9.88;;;6.13;;
65328;SDS011;51941;52.210;5.158;2023-08-12T02:19:08;8.38;;;5.80;;
65328;SDS011;51941;52.210;5.158;2023-08-12T02:21:34;8.82;;;6.15;;
65328;SDS011;51941;52.210;5.158;2023-08-12T02:24:01;9.57;;;6.00;;
65328;SDS011;51941;52.210;5.158;2023-08-12T02:26:28;11.13;;;5.70;;
65328;SDS011;51941;52.210;5.158;2023-08-12T02:28:55;9.80;;;5.18;;
65328;SDS011;51941;52.210;5.158;2023-08-12T02:31:23;9.32;;;5.60;;
65328;SDS011;51941;52.210;5.158;2023-08-12T02:33:50;11.10;;;5.55;;
65328;SDS011;51941;52.210;5.158;2023-08-12T02:36:17;12.52;;;6.60;;
65328;SDS011;51941;52.210;5.158;2023-08-12T02:38:44;11.68;;;6.30;;
65328;SDS011;51941;52.210;5.158;2023-08-12T02:41:11;14.20;;;6.90;;
65328;SDS011;51941;52.210;5.158;2023-08-12T02:43:37;11.02;;;6.78;;
65328;SDS011;51941;52.210;5.158;2023-08-12T02:46:04;13.63;;;6.88;;
65328;SDS011;51941;52.210;5.158;2023-08-12T02:48:34;11.82;;;6.88;;
65328;SDS011;51941;52.210;5.158;2023-08-12T02:51:03;10.13;;;6.78;;
65328;SDS011;51941;52.210;5.158;2023-08-12T02:53:30;14.05;;;7.63;;
65328;SDS011;51941;52.210;5.158;2023-08-12T02:55:56;12.18;;;7.00;;
65328;SDS011;51941;52.210;5.158;2023-08-12T02:58:23;12.30;;;6.82;;
65328;SDS011;51941;52.210;5.158;2023-08-12T03:00:50;12.18;;;7.25;;
65328;SDS011;51941;52.210;5.158;2023-08-12T03:03:17;11.77;;;7.00;;
65328;SDS011;51941;52.210;5.158;2023-08-12T03:05:46;9.18;;;6.35;;
65328;SDS011;51941;52.210;5.158;2023-08-12T03:10:40;12.85;;;7.30;;
65328;SDS011;51941;52.210;5.158;2023-08-12T03:13:10;17.38;;;7.78;;
65328;SDS011;51941;52.210;5.158;2023-08-12T03:15:38;13.25;;;7.10;;
65328;SDS011;51941;52.210;5.158;2023-08-12T03:18:06;13.07;;;7.33;;
65328;SDS011;51941;52.210;5.158;2023-08-12T03:20:32;15.25;;;8.93;;
65328;SDS011;51941;52.210;5.158;2023-08-12T03:23:01;11.93;;;7.10;;
65328;SDS011;51941;52.210;5.158;2023-08-12T03:25:28;14.73;;;8.77;;
65328;SDS011;51941;52.210;5.158;2023-08-12T03:27:55;14.10;;;8.70;;
65328;SDS011;51941;52.210;5.158;2023-08-12T03:30:24;11.55;;;8.32;;
65328;SDS011;51941;52.210;5.158;2023-08-12T03:32:51;14.50;;;8.40;;
65328;SDS011;51941;52.210;5.158;2023-08-12T03:35:18;16.35;;;8.90;;
65328;SDS011;51941;52.210;5.158;2023-08-12T03:37:45;15.20;;;8.00;;
65328;SDS011;51941;52.210;5.158;2023-08-12T03:40:14;15.80;;;9.00;;
65328;SDS011;51941;52.210;5.158;2023-08-12T03:42:41;12.73;;;7.90;;
65328;SDS011;51941;52.210;5.158;2023-08-12T03:45:09;16.63;;;9.70;;
65328;SDS011;51941;52.210;5.158;2023-08-12T03:47:36;13.55;;;8.85;;
65328;SDS011;51941;52.210;5.158;2023-08-12T03:50:03;14.27;;;8.15;;
65328;SDS011;51941;52.210;5.158;2023-08-12T03:52:31;15.15;;;8.80;;
65328;SDS011;51941;52.210;5.158;2023-08-12T03:54:58;13.20;;;8.48;;
65328;SDS011;51941;52.210;5.158;2023-08-12T03:57:27;13.68;;;8.70;;
65328;SDS011;51941;52.210;5.158;2023-08-12T03:59:54;14.43;;;8.43;;
65328;SDS011;51941;52.210;5.158;2023-08-12T04:02:21;14.90;;;9.38;;
65328;SDS011;51941;52.210;5.158;2023-08-12T04:04:47;14.50;;;9.75;;
65328;SDS011;51941;52.210;5.158;2023-08-12T04:07:14;13.52;;;8.80;;
65328;SDS011;51941;52.210;5.158;2023-08-12T04:09:41;18.25;;;9.60;;
65328;SDS011;51941;52.210;5.158;2023-08-12T04:12:08;14.63;;;9.00;;
65328;SDS011;51941;52.210;5.158;2023-08-12T04:14:36;11.88;;;7.90;;
65328;SDS011;51941;52.210;5.158;2023-08-12T04:17:03;12.70;;;8.38;;
65328;SDS011;51941;52.210;5.158;2023-08-12T04:19:30;14.23;;;9.30;;
65328;SDS011;51941;52.210;5.158;2023-08-12T04:21:57;12.48;;;8.85;;
65328;SDS011;51941;52.210;5.158;2023-08-12T04:24:24;17.58;;;10.05;;
65328;SDS011;51941;52.210;5.158;2023-08-12T04:26:51;13.82;;;9.10;;
65328;SDS011;51941;52.210;5.158;2023-08-12T04:29:18;12.05;;;8.77;;
65328;SDS011;51941;52.210;5.158;2023-08-12T04:31:47;14.23;;;8.85;;
65328;SDS011;51941;52.210;5.158;2023-08-12T04:34:14;12.88;;;9.02;;
65328;SDS011;51941;52.210;5.158;2023-08-12T04:36:41;15.50;;;9.70;;
65328;SDS011;51941;52.210;5.158;2023-08-12T04:39:08;16.63;;;10.10;;
65328;SDS011;51941;52.210;5.158;2023-08-12T04:41:35;16.45;;;9.95;;
65328;SDS011;51941;52.210;5.158;2023-08-12T04:44:04;15.45;;;10.55;;
65328;SDS011;51941;52.210;5.158;2023-08-12T04:46:31;15.18;;;10.52;;
65328;SDS011;51941;52.210;5.158;2023-08-12T04:48:59;11.98;;;8.98;;
65328;SDS011;51941;52.210;5.158;2023-08-12T04:51:26;12.68;;;8.00;;
65328;SDS011;51941;52.210;5.158;2023-08-12T04:53:53;15.48;;;9.38;;
65328;SDS011;51941;52.210;5.158;2023-08-12T04:56:20;13.88;;;10.35;;
65328;SDS011;51941;52.210;5.158;2023-08-12T04:58:47;13.52;;;9.07;;
65328;SDS011;51941;52.210;5.158;2023-08-12T05:01:14;15.63;;;8.88;;
65328;SDS011;51941;52.210;5.158;2023-08-12T05:03:41;14.65;;;8.82;;
65328;SDS011;51941;52.210;5.158;2023-08-12T05:06:10;13.55;;;8.82;;
65328;SDS011;51941;52.210;5.158;2023-08-12T05:08:37;13.05;;;8.68;;
65328;SDS011;51941;52.210;5.158;2023-08-12T05:11:05;13.57;;;8.70;;
65328;SDS011;51941;52.210;5.158;2023-08-12T05:13:32;14.88;;;9.02;;
65328;SDS011;51941;52.210;5.158;2023-08-12T05:16:00;12.03;;;9.20;;
65328;SDS011;51941;52.210;5.158;2023-08-12T05:18:27;15.65;;;10.70;;
65328;SDS011;51941;52.210;5.158;2023-08-12T05:20:54;15.32;;;9.40;;
65328;SDS011;51941;52.210;5.158;2023-08-12T05:23:24;14.75;;;8.65;;
65328;SDS011;51941;52.210;5.158;2023-08-12T05:25:51;14.07;;;8.30;;
65328;SDS011;51941;52.210;5.158;2023-08-12T05:28:18;11.35;;;8.00;;
65328;SDS011;51941;52.210;5.158;2023-08-12T05:30:44;15.18;;;8.45;;
65328;SDS011;51941;52.210;5.158;2023-08-12T05:33:11;12.73;;;8.48;;
65328;SDS011;51941;52.210;5.158;2023-08-12T05:35:38;11.82;;;7.95;;
65328;SDS011;51941;52.210;5.158;2023-08-12T05:38:05;10.38;;;8.32;;
65328;SDS011;51941;52.210;5.158;2023-08-12T05:40:33;13.48;;;8.43;;
65328;SDS011;51941;52.210;5.158;2023-08-12T05:42:59;11.57;;;7.78;;
65328;SDS011;51941;52.210;5.158;2023-08-12T05:45:26;10.88;;;8.45;;
65328;SDS011;51941;52.210;5.158;2023-08-12T05:47:53;10.82;;;7.75;;
65328;SDS011;51941;52.210;5.158;2023-08-12T05:50:20;8.30;;;6.90;;
65328;SDS011;51941;52.210;5.158;2023-08-12T05:52:46;15.13;;;8.77;;
65328;SDS011;51941;52.210;5.158;2023-08-12T05:55:13;17.50;;;9.68;;
65328;SDS011;51941;52.210;5.158;2023-08-12T05:57:41;15.07;;;9.45;;
65328;SDS011;51941;52.210;5.158;2023-08-12T06:00:08;12.77;;;8.60;;
65328;SDS011;51941;52.210;5.158;2023-08-12T06:02:39;12.43;;;8.63;;
65328;SDS011;51941;52.210;5.158;2023-08-12T06:05:06;13.90;;;9.23;;
65328;SDS011;51941;52.210;5.158;2023-08-12T06:07:33;14.85;;;10.23;;
65328;SDS011;51941;52.210;5.158;2023-08-12T06:10:00;15.23;;;9.63;;
65328;SDS011;51941;52.210;5.158;2023-08-12T06:12:28;16.02;;;9.02;;
65328;SDS011;51941;52.210;5.158;2023-08-12T06:14:56;15.15;;;10.05;;
65328;SDS011;51941;52.210;5.158;2023-08-12T06:17:23;18.35;;;11.02;;
65328;SDS011;51941;52.210;5.158;2023-08-12T06:19:50;14.82;;;10.75;;
65328;SDS011;51941;52.210;5.158;2023-08-12T06:22:16;14.55;;;8.68;;
65328;SDS011;51941;52.210;5.158;2023-08-12T06:24:43;17.85;;;10.23;;
65328;SDS011;51941;52.210;5.158;2023-08-12T06:27:10;17.15;;;10.00;;
65328;SDS011;51941;52.210;5.158;2023-08-12T06:29:37;11.57;;;9.02;;
65328;SDS011;51941;52.210;5.158;2023-08-12T06:32:05;10.77;;;8.95;;
65328;SDS011;51941;52.210;5.158;2023-08-12T06:34:32;9.98;;;8.00;;
65328;SDS011;51941;52.210;5.158;2023-08-12T06:36:59;9.80;;;7.85;;
65328;SDS011;51941;52.210;5.158;2023-08-12T06:39:26;8.45;;;7.53;;
65328;SDS011;51941;52.210;5.158;2023-08-12T06:41:52;9.93;;;8.25;;
65328;SDS011;51941;52.210;5.158;2023-08-12T06:44:20;7.45;;;6.57;;
65328;SDS011;51941;52.210;5.158;2023-08-12T06:46:46;7.43;;;5.72;;
65328;SDS011;51941;52.210;5.158;2023-08-12T06:49:14;4.82;;;4.38;;
65328;SDS011;51941;52.210;5.158;2023-08-12T06:51:41;6.35;;;4.15;;
65328;SDS011;51941;52.210;5.158;2023-08-12T06:54:08;6.75;;;3.70;;
65328;SDS011;51941;52.210;5.158;2023-08-12T06:56:34;4.72;;;3.45;;
65328;SDS011;51941;52.210;5.158;2023-08-12T06:59:01;4.63;;;3.50;;
65328;SDS011;51941;52.210;5.158;2023-08-12T07:01:28;5.38;;;3.38;;
65328;SDS011;51941;52.210;5.158;2023-08-12T07:03:55;4.57;;;2.90;;
65328;SDS011;51941;52.210;5.158;2023-08-12T07:06:23;4.03;;;2.72;;
65328;SDS011;51941;52.210;5.158;2023-08-12T07:08:50;3.67;;;2.60;;
65328;SDS011;51941;52.210;5.158;2023-08-12T07:11:17;3.08;;;2.10;;
65328;SDS011;51941;52.210;5.158;2023-08-12T07:13:44;3.55;;;2.03;;
65328;SDS011;51941;52.210;5.158;2023-08-12T07:16:11;2.42;;;1.85;;
65328;SDS011;51941;52.210;5.158;2023-08-12T07:18:38;2.08;;;1.65;;
65328;SDS011;51941;52.210;5.158;2023-08-12T07:21:04;4.15;;;2.20;;
65328;SDS011;51941;52.210;5.158;2023-08-12T07:23:32;2.45;;;1.80;;
65328;SDS011;51941;52.210;5.158;2023-08-12T07:25:59;1.70;;;1.60;;
65328;SDS011;51941;52.210;5.158;2023-08-12T07:28:26;3.60;;;2.28;;
65328;SDS011;51941;52.210;5.158;2023-08-12T07:30:53;2.20;;;2.00;;
65328;SDS011;51941;52.210;5.158;2023-08-12T07:33:19;2.40;;;1.85;;
65328;SDS011;51941;52.210;5.158;2023-08-12T07:35:46;2.60;;;2.00;;
65328;SDS011;51941;52.210;5.158;2023-08-12T07:38:13;2.75;;;2.20;;
65328;SDS011;51941;52.210;5.158;2023-08-12T07:40:41;3.60;;;2.08;;
65328;SDS011;51941;52.210;5.158;2023-08-12T07:43:10;2.90;;;2.10;;
65328;SDS011;51941;52.210;5.158;2023-08-12T07:45:37;3.67;;;2.25;;
65328;SDS011;51941;52.210;5.158;2023-08-12T07:48:04;2.92;;;2.35;;
65328;SDS011;51941;52.210;5.158;2023-08-12T07:50:31;3.35;;;2.10;;
65328;SDS011;51941;52.210;5.158;2023-08-12T07:52:58;2.75;;;2.28;;
65328;SDS011;51941;52.210;5.158;2023-08-12T07:55:26;2.38;;;2.15;;
65328;SDS011;51941;52.210;5.158;2023-08-12T07:57:56;2.90;;;2.50;;
65328;SDS011;51941;52.210;5.158;2023-08-12T08:00:23;1.92;;;1.80;;
65328;SDS011;51941;52.210;5.158;2023-08-12T08:02:49;1.60;;;1.50;;
65328;SDS011;51941;52.210;5.158;2023-08-12T08:05:16;1.23;;;1.13;;
65328;SDS011;51941;52.210;5.158;2023-08-12T08:07:43;1.48;;;1.10;;
65328;SDS011;51941;52.210;5.158;2023-08-12T08:10:10;1.45;;;1.13;;
65328;SDS011;51941;52.210;5.158;2023-08-12T08:12:36;0.98;;;0.90;;
65328;SDS011;51941;52.210;5.158;2023-08-12T08:15:05;0.98;;;0.80;;
65328;SDS011;51941;52.210;5.158;2023-08-12T08:17:32;0.80;;;0.80;;
65328;SDS011;51941;52.210;5.158;2023-08-12T08:19:59;0.95;;;0.80;;
65328;SDS011;51941;52.210;5.158;2023-08-12T08:22:26;0.88;;;0.75;;
65328;SDS011;51941;52.210;5.158;2023-08-12T08:24:53;0.82;;;0.80;;
65328;SDS011;51941;52.210;5.158;2023-08-12T08:27:20;0.60;;;0.60;;
65328;SDS011;51941;52.210;5.158;2023-08-12T08:29:46;0.80;;;0.50;;
65328;SDS011;51941;52.210;5.158;2023-08-12T08:32:14;2.13;;;0.70;;
65328;SDS011;51941;52.210;5.158;2023-08-12T08:34:41;1.40;;;0.88;;
65328;SDS011;51941;52.210;5.158;2023-08-12T08:37:08;3.45;;;1.10;;
65328;SDS011;51941;52.210;5.158;2023-08-12T08:39:35;2.33;;;1.00;;
65328;SDS011;51941;52.210;5.158;2023-08-12T08:42:02;4.00;;;1.15;;
65328;SDS011;51941;52.210;5.158;2023-08-12T08:44:31;4.28;;;1.13;;
65328;SDS011;51941;52.210;5.158;2023-08-12T08:46:59;2.33;;;1.00;;
65328;SDS011;51941;52.210;5.158;2023-08-12T08:49:29;9.37;;;4.17;;
65328;SDS011;51941;52.210;5.158;2023-08-12T08:51:57;5.90;;;2.35;;
65328;SDS011;51941;52.210;5.158;2023-08-12T08:54:25;5.90;;;1.83;;
65328;SDS011;51941;52.210;5.158;2023-08-12T08:56:53;4.25;;;1.20;;
65328;SDS011;51941;52.210;5.158;2023-08-12T08:59:20;11.30;;;1.20;;
65328;SDS011;51941;52.210;5.158;2023-08-12T09:01:47;6.25;;;1.30;;
65328;SDS011;51941;52.210;5.158;2023-08-12T09:04:17;4.65;;;1.30;;
65328;SDS011;51941;52.210;5.158;2023-08-12T09:06:46;3.42;;;1.13;;
65328;SDS011;51941;52.210;5.158;2023-08-12T09:09:14;5.05;;;1.38;;
65328;SDS011;51941;52.210;5.158;2023-08-12T09:11:45;4.93;;;1.20;;
65328;SDS011;51941;52.210;5.158;2023-08-12T09:14:13;4.88;;;1.35;;
65328;SDS011;51941;52.210;5.158;2023-08-12T09:16:41;3.40;;;1.05;;
65328;SDS011;51941;52.210;5.158;2023-08-12T09:19:07;4.22;;;1.20;;
65328;SDS011;51941;52.210;5.158;2023-08-12T09:21:34;4.40;;;1.23;;
65328;SDS011;51941;52.210;5.158;2023-08-12T09:24:03;6.45;;;1.50;;
65328;SDS011;51941;52.210;5.158;2023-08-12T09:26:31;3.72;;;1.08;;
65328;SDS011;51941;52.210;5.158;2023-08-12T09:28:58;3.65;;;1.25;;
65328;SDS011;51941;52.210;5.158;2023-08-12T09:31:26;5.05;;;1.30;;
65328;SDS011;51941;52.210;5.158;2023-08-12T09:33:57;4.80;;;1.40;;
65328;SDS011;51941;52.210;5.158;2023-08-12T09:36:27;5.57;;;1.30;;
65328;SDS011;51941;52.210;5.158;2023-08-12T09:38:54;4.80;;;1.40;;
65328;SDS011;51941;52.210;5.158;2023-08-12T09:41:23;3.60;;;1.05;;
65328;SDS011;51941;52.210;5.158;2023-08-12T09:43:50;4.75;;;1.40;;
65328;SDS011;51941;52.210;5.158;2023-08-12T09:46:18;4.97;;;1.17;;
65328;SDS011;51941;52.210;5.158;2023-08-12T09:48:48;3.70;;;1.23;;
65328;SDS011;51941;52.210;5.158;2023-08-12T09:51:16;2.85;;;1.00;;
65328;SDS011;51941;52.210;5.158;2023-08-12T09:53:43;4.93;;;1.30;;
65328;SDS011;51941;52.210;5.158;2023-08-12T09:56:11;3.72;;;1.20;;
65328;SDS011;51941;52.210;5.158;2023-08-12T09:58:40;4.13;;;1.25;;
65328;SDS011;51941;52.210;5.158;2023-08-12T10:01:09;7.05;;;1.63;;
65328;SDS011;51941;52.210;5.158;2023-08-12T10:03:38;6.03;;;1.33;;
65328;SDS011;51941;52.210;5.158;2023-08-12T10:06:07;4.45;;;1.10;;
65328;SDS011;51941;52.210;5.158;2023-08-12T10:08:34;4.93;;;1.38;;
65328;SDS011;51941;52.210;5.158;2023-08-12T10:11:02;5.18;;;1.30;;
65328;SDS011;51941;52.210;5.158;2023-08-12T10:13:29;4.65;;;1.23;;
65328;SDS011;51941;52.210;5.158;2023-08-12T10:15:57;7.25;;;1.75;;
65328;SDS011;51941;52.210;5.158;2023-08-12T10:18:24;4.05;;;1.60;;
65328;SDS011;51941;52.210;5.158;2023-08-12T10:20:53;7.53;;;1.60;;
65328;SDS011;51941;52.210;5.158;2023-08-12T10:23:23;5.20;;;1.80;;
65328;SDS011;51941;52.210;5.158;2023-08-12T10:25:52;5.43;;;1.50;;
65328;SDS011;51941;52.210;5.158;2023-08-12T10:28:20;6.32;;;1.63;;
65328;SDS011;51941;52.210;5.158;2023-08-12T10:30:48;7.45;;;1.95;;
65328;SDS011;51941;52.210;5.158;2023-08-12T10:33:16;3.67;;;1.30;;
65328;SDS011;51941;52.210;5.158;2023-08-12T10:35:44;8.33;;;1.73;;
65328;SDS011;51941;52.210;5.158;2023-08-12T10:38:16;4.53;;;1.10;;
65328;SDS011;51941;52.210;5.158;2023-08-12T10:40:44;6.05;;;1.85;;
65328;SDS011;51941;52.210;5.158;2023-08-12T10:43:11;7.47;;;1.92;;
65328;SDS011;51941;52.210;5.158;2023-08-12T10:45:42;5.90;;;1.55;;
65328;SDS011;51941;52.210;5.158;2023-08-12T10:48:18;4.63;;;1.30;;
65328;SDS011;51941;52.210;5.158;2023-08-12T10:50:49;4.25;;;1.30;;
65328;SDS011;51941;52.210;5.158;2023-08-12T10:53:22;5.72;;;1.70;;
65328;SDS011;51941;52.210;5.158;2023-08-12T10:55:54;4.82;;;1.30;;
65328;SDS011;51941;52.210;5.158;2023-08-12T10:58:26;6.68;;;1.50;;
65328;SDS011;51941;52.210;5.158;2023-08-12T11:00:54;5.57;;;1.35;;
65328;SDS011;51941;52.210;5.158;2023-08-12T11:03:23;6.80;;;1.60;;
65328;SDS011;51941;52.210;5.158;2023-08-12T11:05:49;5.53;;;1.40;;
65328;SDS011;51941;52.210;5.158;2023-08-12T11:08:23;6.03;;;1.67;;
65328;SDS011;51941;52.210;5.158;2023-08-12T11:10:52;5.70;;;1.40;;
65328;SDS011;51941;52.210;5.158;2023-08-12T11:13:21;3.28;;;1.20;;
65328;SDS011;51941;52.210;5.158;2023-08-12T11:15:48;6.18;;;1.65;;
65328;SDS011;51941;52.210;5.158;2023-08-12T11:18:16;7.97;;;1.50;;
65328;SDS011;51941;52.210;5.158;2023-08-12T11:20:45;8.23;;;1.50;;
65328;SDS011;51941;52.210;5.158;2023-08-12T11:23:13;6.13;;;1.30;;
65328;SDS011;51941;52.210;5.158;2023-08-12T11:25:42;6.38;;;1.70;;
65328;SDS011;51941;52.210;5.158;2023-08-12T11:28:09;4.07;;;1.50;;
65328;SDS011;51941;52.210;5.158;2023-08-12T11:30:36;8.13;;;1.73;;
65328;SDS011;51941;52.210;5.158;2023-08-12T11:33:06;5.93;;;1.30;;
65328;SDS011;51941;52.210;5.158;2023-08-12T11:35:33;6.05;;;1.55;;
65328;SDS011;51941;52.210;5.158;2023-08-12T11:38:03;5.28;;;1.30;;
65328;SDS011;51941;52.210;5.158;2023-08-12T11:40:31;7.43;;;2.33;;
65328;SDS011;51941;52.210;5.158;2023-08-12T11:42:58;9.38;;;1.60;;
65328;SDS011;51941;52.210;5.158;2023-08-12T11:45:25;6.90;;;1.30;;
65328;SDS011;51941;52.210;5.158;2023-08-12T11:47:53;7.10;;;1.38;;
65328;SDS011;51941;52.210;5.158;2023-08-12T11:50:21;5.70;;;1.50;;
65328;SDS011;51941;52.210;5.158;2023-08-12T11:52:49;8.35;;;1.98;;
65328;SDS011;51941;52.210;5.158;2023-08-12T11:55:18;7.15;;;1.60;;
65328;SDS011;51941;52.210;5.158;2023-08-12T11:57:45;8.33;;;1.50;;
65328;SDS011;51941;52.210;5.158;2023-08-12T12:00:12;7.82;;;1.60;;
65328;SDS011;51941;52.210;5.158;2023-08-12T12:02:40;4.97;;;1.40;;
65328;SDS011;51941;52.210;5.158;2023-08-12T12:05:11;9.75;;;1.70;;
65328;SDS011;51941;52.210;5.158;2023-08-12T12:07:39;6.82;;;1.63;;
65328;SDS011;51941;52.210;5.158;2023-08-12T12:10:07;8.27;;;1.70;;
65328;SDS011;51941;52.210;5.158;2023-08-12T12:12:36;6.95;;;2.10;;
65328;SDS011;51941;52.210;5.158;2023-08-12T12:15:03;8.20;;;1.70;;
65328;SDS011;51941;52.210;5.158;2023-08-12T12:17:31;3.78;;;1.20;;
65328;SDS011;51941;52.210;5.158;2023-08-12T12:19:58;7.72;;;1.80;;
65328;SDS011;51941;52.210;5.158;2023-08-12T12:22:26;7.82;;;1.73;;
65328;SDS011;51941;52.210;5.158;2023-08-12T12:24:54;9.18;;;1.92;;
65328;SDS011;51941;52.210;5.158;2023-08-12T12:29:51;6.22;;;1.33;;
65328;SDS011;51941;52.210;5.158;2023-08-12T12:32:18;9.20;;;1.50;;
65328;SDS011;51941;52.210;5.158;2023-08-12T12:34:45;7.80;;;1.50;;
65328;SDS011;51941;52.210;5.158;2023-08-12T12:37:12;7.32;;;1.60;;
65328;SDS011;51941;52.210;5.158;2023-08-12T12:39:39;7.00;;;1.98;;
65328;SDS011;51941;52.210;5.158;2023-08-12T12:42:07;8.02;;;1.65;;
65328;SDS011;51941;52.210;5.158;2023-08-12T12:44:34;7.60;;;1.98;;
65328;SDS011;51941;52.210;5.158;2023-08-12T12:47:03;6.70;;;1.98;;
65328;SDS011;51941;52.210;5.158;2023-08-12T12:49:30;9.93;;;1.70;;
65328;SDS011;51941;52.210;5.158;2023-08-12T12:51:57;5.20;;;1.50;;
65328;SDS011;51941;52.210;5.158;2023-08-12T12:54:23;7.53;;;1.92;;
65328;SDS011;51941;52.210;5.158;2023-08-12T12:56:50;5.55;;;1.50;;
65328;SDS011;51941;52.210;5.158;2023-08-12T12:59:17;8.50;;;1.98;;
65328;SDS011;51941;52.210;5.158;2023-08-12T13:01:44;8.55;;;1.85;;
65328;SDS011;51941;52.210;5.158;2023-08-12T13:04:12;7.60;;;1.77;;
65328;SDS011;51941;52.210;5.158;2023-08-12T13:06:39;9.48;;;1.70;;
65328;SDS011;51941;52.210;5.158;2023-08-12T13:09:06;8.93;;;2.05;;
65328;SDS011;51941;52.210;5.158;2023-08-12T13:11:33;11.18;;;2.30;;
65328;SDS011;51941;52.210;5.158;2023-08-12T13:14:00;7.55;;;1.73;;
65328;SDS011;51941;52.210;5.158;2023-08-12T13:16:27;6.20;;;1.80;;
65328;SDS011;51941;52.210;5.158;2023-08-12T13:18:54;6.82;;;1.95;;
65328;SDS011;51941;52.210;5.158;2023-08-12T13:21:24;6.63;;;2.03;;
65328;SDS011;51941;52.210;5.158;2023-08-12T13:23:51;8.90;;;2.10;;
65328;SDS011;51941;52.210;5.158;2023-08-12T13:26:20;7.33;;;1.70;;
65328;SDS011;51941;52.210;5.158;2023-08-12T13:28:47;5.95;;;1.42;;
65328;SDS011;51941;52.210;5.158;2023-08-12T13:31:14;6.28;;;1.90;;
65328;SDS011;51941;52.210;5.158;2023-08-12T13:33:40;7.93;;;2.00;;
65328;SDS011;51941;52.210;5.158;2023-08-12T13:36:07;6.10;;;1.63;;
65328;SDS011;51941;52.210;5.158;2023-08-12T13:38:35;7.68;;;1.95;;
65328;SDS011;51941;52.210;5.158;2023-08-12T13:41:02;8.75;;;1.92;;
65328;SDS011;51941;52.210;5.158;2023-08-12T13:43:29;9.40;;;2.10;;
65328;SDS011;51941;52.210;5.158;2023-08-12T13:45:56;6.28;;;1.75;;
65328;SDS011;51941;52.210;5.158;2023-08-12T13:48:23;9.32;;;1.85;;
65328;SDS011;51941;52.210;5.158;2023-08-12T13:50:50;7.80;;;2.17;;
65328;SDS011;51941;52.210;5.158;2023-08-12T13:53:17;7.45;;;1.60;;
65328;SDS011;51941;52.210;5.158;2023-08-12T13:55:46;8.88;;;2.20;;
65328;SDS011;51941;52.210;5.158;2023-08-12T13:58:12;5.57;;;1.60;;
65328;SDS011;51941;52.210;5.158;2023-08-12T14:00:39;8.77;;;2.00;;
65328;SDS011;51941;52.210;5.158;2023-08-12T14:03:06;7.00;;;1.70;;
65328;SDS011;51941;52.210;5.158;2023-08-12T14:05:33;6.22;;;1.63;;
65328;SDS011;51941;52.210;5.158;2023-08-12T14:08:00;6.10;;;1.67;;
65328;SDS011;51941;52.210;5.158;2023-08-12T14:10:27;6.55;;;1.77;;
65328;SDS011;51941;52.210;5.158;2023-08-12T14:12:55;8.90;;;2.20;;
65328;SDS011;51941;52.210;5.158;2023-08-12T14:15:22;9.00;;;1.70;;
65328;SDS011;51941;52.210;5.158;2023-08-12T14:17:49;8.65;;;2.22;;
65328;SDS011;51941;52.210;5.158;2023-08-12T14:20:16;9.20;;;2.08;;
65328;SDS011;51941;52.210;5.158;2023-08-12T14:22:43;8.70;;;2.00;;
65328;SDS011;51941;52.210;5.158;2023-08-12T14:25:09;7.70;;;2.13;;
65328;SDS011;51941;52.210;5.158;2023-08-12T14:27:37;12.98;;;2.22;;
65328;SDS011;51941;52.210;5.158;2023-08-12T14:30:06;6.60;;;2.35;;
65328;SDS011;51941;52.210;5.158;2023-08-12T14:32:33;8.02;;;1.77;;
65328;SDS011;51941;52.210;5.158;2023-08-12T14:35:00;9.98;;;2.05;;
65328;SDS011;51941;52.210;5.158;2023-08-12T14:37:27;9.68;;;1.90;;
65328;SDS011;51941;52.210;5.158;2023-08-12T14:39:54;16.20;;;4.10;;
65328;SDS011;51941;52.210;5.158;2023-08-12T14:42:20;9.18;;;1.98;;
65328;SDS011;51941;52.210;5.158;2023-08-12T14:44:48;13.00;;;2.22;;
65328;SDS011;51941;52.210;5.158;2023-08-12T14:47:16;8.82;;;2.40;;
65328;SDS011;51941;52.210;5.158;2023-08-12T14:49:44;7.85;;;1.50;;
65328;SDS011;51941;52.210;5.158;2023-08-12T14:52:15;9.77;;;2.47;;